sensor_id;sensor_type;location;lat;lon;timestamp;pressure;altitude;pressure_sealevel;temperature
66604;BMP280;53460;39.612;8.822;2023-02-01T00:02:24;89834.72;;;-145.93
66604;BMP280;53460;39.612;8.822;2023-02-01T00:04:50;89834.72;;;-145.93
66604;BMP280;53460;39.612;8.822;2023-02-01T00:07:15;89834.72;;;-145.93
66604;BMP280;53460;39.612;8.822;2023-02-01T00:09:41;89834.72;;;-145.93
66604;BMP280;53460;39.612;8.822;2023-02-01T00:12:06;89834.72;;;-145.93
66604;BMP280;53460;39.612;8.822;2023-02-01T00:14:32;89834.72;;;-145.93
66604;BMP280;53460;39.612;8.822;2023-02-01T00:17:06;89834.72;;;-145.93
66604;BMP280;53460;39.612;8.822;2023-02-01T00:19:33;89834.72;;;-145.93
66604;BMP280;53460;39.612;8.822;2023-02-01T00:21:59;89834.72;;;-145.93
66604;BMP280;53460;39.612;8.822;2023-02-01T00:24:24;89834.72;;;-145.93
66604;BMP280;53460;39.612;8.822;2023-02-01T00:26:50;89834.72;;;-145.93
66604;BMP280;53460;39.612;8.822;2023-02-01T00:29:18;89834.72;;;-145.93
66604;BMP280;53460;39.612;8.822;2023-02-01T00:31:44;89834.72;;;-145.93
66604;BMP280;53460;39.612;8.822;2023-02-01T00:34:13;89834.72;;;-145.93
66604;BMP280;53460;39.612;8.822;2023-02-01T00:36:40;89834.72;;;-145.93
66604;BMP280;53460;39.612;8.822;2023-02-01T00:39:06;89834.72;;;-145.93
66604;BMP280;53460;39.612;8.822;2023-02-01T00:41:32;89834.72;;;-145.93
66604;BMP280;53460;39.612;8.822;2023-02-01T00:43:58;89834.72;;;-145.93
66604;BMP280;53460;39.612;8.822;2023-02-01T00:46:23;89834.72;;;-145.93
66604;BMP280;53460;39.612;8.822;2023-02-01T00:48:49;89834.72;;;-145.93
66604;BMP280;53460;39.612;8.822;2023-02-01T00:51:18;89834.72;;;-145.93
66604;BMP280;53460;39.612;8.822;2023-02-01T00:53:44;89834.72;;;-145.93
66604;BMP280;53460;39.612;8.822;2023-02-01T00:56:11;89834.72;;;-145.93
66604;BMP280;53460;39.612;8.822;2023-02-01T00:58:37;89834.72;;;-145.93
66604;BMP280;53460;39.612;8.822;2023-02-01T01:01:08;89834.72;;;-145.93
66604;BMP280;53460;39.612;8.822;2023-02-01T01:03:37;89834.72;;;-145.93
66604;BMP280;53460;39.612;8.822;2023-02-01T01:06:06;89834.72;;;-145.93
66604;BMP280;53460;39.612;8.822;2023-02-01T01:08:32;89834.72;;;-145.93
66604;BMP280;53460;39.612;8.822;2023-02-01T01:10:59;89834.72;;;-145.93
66604;BMP280;53460;39.612;8.822;2023-02-01T01:13:24;89834.72;;;-145.93
66604;BMP280;53460;39.612;8.822;2023-02-01T01:15:50;89834.72;;;-145.93
66604;BMP280;53460;39.612;8.822;2023-02-01T01:18:16;89834.72;;;-145.93
66604;BMP280;53460;39.612;8.822;2023-02-01T01:20:41;89834.72;;;-145.93
66604;BMP280;53460;39.612;8.822;2023-02-01T01:23:08;89834.72;;;-145.93
66604;BMP280;53460;39.612;8.822;2023-02-01T01:25:40;89834.72;;;-145.93
66604;BMP280;53460;39.612;8.822;2023-02-01T01:28:07;89834.72;;;-145.93
66604;BMP280;53460;39.612;8.822;2023-02-01T01:30:35;89834.72;;;-145.93
66604;BMP280;53460;39.612;8.822;2023-02-01T01:33:01;89834.72;;;-145.93
66604;BMP280;53460;39.612;8.822;2023-02-01T01:35:32;89834.72;;;-145.93
66604;BMP280;53460;39.612;8.822;2023-02-01T01:37:58;89834.72;;;-145.93
66604;BMP280;53460;39.612;8.822;2023-02-01T01:40:25;89834.72;;;-145.93
66604;BMP280;53460;39.612;8.822;2023-02-01T01:42:51;89834.72;;;-145.93
66604;BMP280;53460;39.612;8.822;2023-02-01T01:45:26;89834.72;;;-145.93
66604;BMP280;53460;39.612;8.822;2023-02-01T01:48:03;89834.72;;;-145.93
66604;BMP280;53460;39.612;8.822;2023-02-01T01:50:39;89834.72;;;-145.93
66604;BMP280;53460;39.612;8.822;2023-02-01T01:53:08;89834.72;;;-145.93
66604;BMP280;53460;39.612;8.822;2023-02-01T01:55:37;89834.72;;;-145.93
66604;BMP280;53460;39.612;8.822;2023-02-01T01:58:10;89834.72;;;-145.93
66604;BMP280;53460;39.612;8.822;2023-02-01T02:00:37;89834.72;;;-145.93
66604;BMP280;53460;39.612;8.822;2023-02-01T02:03:12;89834.72;;;-145.93
66604;BMP280;53460;39.612;8.822;2023-02-01T02:05:39;89834.72;;;-145.93
66604;BMP280;53460;39.612;8.822;2023-02-01T02:08:05;89834.72;;;-145.93
66604;BMP280;53460;39.612;8.822;2023-02-01T02:10:31;89834.72;;;-145.93
66604;BMP280;53460;39.612;8.822;2023-02-01T02:13:17;89834.72;;;-145.93
66604;BMP280;53460;39.612;8.822;2023-02-01T02:15:53;89834.72;;;-145.93
66604;BMP280;53460;39.612;8.822;2023-02-01T02:18:33;89834.72;;;-145.93
66604;BMP280;53460;39.612;8.822;2023-02-01T02:21:14;89834.72;;;-145.93
66604;BMP280;53460;39.612;8.822;2023-02-01T02:26:51;89834.72;;;-145.93
66604;BMP280;53460;39.612;8.822;2023-02-01T02:37:53;89834.72;;;-145.93
66604;BMP280;53460;39.612;8.822;2023-02-01T02:40:49;89834.72;;;-145.93
66604;BMP280;53460;39.612;8.822;2023-02-01T02:43:26;89834.72;;;-145.93
66604;BMP280;53460;39.612;8.822;2023-02-01T02:46:31;89834.72;;;-145.93
66604;BMP280;53460;39.612;8.822;2023-02-01T02:49:33;89834.72;;;-145.93
66604;BMP280;53460;39.612;8.822;2023-02-01T02:52:12;89834.72;;;-145.93
66604;BMP280;53460;39.612;8.822;2023-02-01T02:54:59;89834.72;;;-145.93
66604;BMP280;53460;39.612;8.822;2023-02-01T02:57:36;89834.72;;;-145.93
66604;BMP280;53460;39.612;8.822;2023-02-01T03:00:32;89834.72;;;-145.93
66604;BMP280;53460;39.612;8.822;2023-02-01T03:03:18;89834.72;;;-145.93
66604;BMP280;53460;39.612;8.822;2023-02-01T03:06:02;89834.72;;;-145.93
66604;BMP280;53460;39.612;8.822;2023-02-01T03:08:30;89834.72;;;-145.93
66604;BMP280;53460;39.612;8.822;2023-02-01T03:11:06;89834.72;;;-145.93
66604;BMP280;53460;39.612;8.822;2023-02-01T03:18:42;89834.72;;;-145.93
66604;BMP280;53460;39.612;8.822;2023-02-01T03:21:16;89834.72;;;-145.93
66604;BMP280;53460;39.612;8.822;2023-02-01T03:23:44;89834.72;;;-145.93
66604;BMP280;53460;39.612;8.822;2023-02-01T03:26:14;89834.72;;;-145.93
66604;BMP280;53460;39.612;8.822;2023-02-01T03:28:48;89834.72;;;-145.93
66604;BMP280;53460;39.612;8.822;2023-02-01T03:31:15;89834.72;;;-145.93
66604;BMP280;53460;39.612;8.822;2023-02-01T03:33:41;89834.72;;;-145.93
66604;BMP280;53460;39.612;8.822;2023-02-01T03:36:26;89834.72;;;-145.93
66604;BMP280;53460;39.612;8.822;2023-02-01T03:39:13;89834.72;;;-145.93
66604;BMP280;53460;39.612;8.822;2023-02-01T03:41:55;89834.72;;;-145.93
66604;BMP280;53460;39.612;8.822;2023-02-01T03:47:43;89834.72;;;-145.93
66604;BMP280;53460;39.612;8.822;2023-02-01T03:50:05;89834.72;;;-145.93
66604;BMP280;53460;39.612;8.822;2023-02-01T03:52:42;89834.72;;;-145.93
66604;BMP280;53460;39.612;8.822;2023-02-01T03:55:09;89834.72;;;-145.93
66604;BMP280;53460;39.612;8.822;2023-02-01T03:57:53;89834.72;;;-145.93
66604;BMP280;53460;39.612;8.822;2023-02-01T04:00:25;89834.72;;;-145.93
66604;BMP280;53460;39.612;8.822;2023-02-01T04:02:52;89834.72;;;-145.93
66604;BMP280;53460;39.612;8.822;2023-02-01T04:05:19;89834.72;;;-145.93
66604;BMP280;53460;39.612;8.822;2023-02-01T04:07:53;89834.72;;;-145.93
66604;BMP280;53460;39.612;8.822;2023-02-01T04:10:19;89834.72;;;-145.93
66604;BMP280;53460;39.612;8.822;2023-02-01T04:12:45;89834.72;;;-145.93
66604;BMP280;53460;39.612;8.822;2023-02-01T04:15:11;89834.72;;;-145.93
66604;BMP280;53460;39.612;8.822;2023-02-01T04:17:36;89834.72;;;-145.93
66604;BMP280;53460;39.612;8.822;2023-02-01T04:20:02;89834.72;;;-145.93
66604;BMP280;53460;39.612;8.822;2023-02-01T04:22:30;89834.72;;;-145.93
66604;BMP280;53460;39.612;8.822;2023-02-01T04:24:55;89834.72;;;-145.93
66604;BMP280;53460;39.612;8.822;2023-02-01T04:27:21;89834.72;;;-145.93
66604;BMP280;53460;39.612;8.822;2023-02-01T04:29:47;89834.72;;;-145.93
66604;BMP280;53460;39.612;8.822;2023-02-01T04:32:15;89834.72;;;-145.93
66604;BMP280;53460;39.612;8.822;2023-02-01T04:34:41;89834.72;;;-145.93
66604;BMP280;53460;39.612;8.822;2023-02-01T04:37:07;89834.72;;;-145.93
66604;BMP280;53460;39.612;8.822;2023-02-01T04:39:33;89834.72;;;-145.93
66604;BMP280;53460;39.612;8.822;2023-02-01T04:41:58;89834.72;;;-145.93
66604;BMP280;53460;39.612;8.822;2023-02-01T04:44:24;89834.72;;;-145.93
66604;BMP280;53460;39.612;8.822;2023-02-01T04:46:50;89834.72;;;-145.93
66604;BMP280;53460;39.612;8.822;2023-02-01T04:49:16;89834.72;;;-145.93
66604;BMP280;53460;39.612;8.822;2023-02-01T04:51:42;89834.72;;;-145.93
66604;BMP280;53460;39.612;8.822;2023-02-01T04:54:08;89834.72;;;-145.93
66604;BMP280;53460;39.612;8.822;2023-02-01T04:56:37;89834.72;;;-145.93
66604;BMP280;53460;39.612;8.822;2023-02-01T04:59:03;89834.72;;;-145.93
66604;BMP280;53460;39.612;8.822;2023-02-01T05:01:29;89834.72;;;-145.93
66604;BMP280;53460;39.612;8.822;2023-02-01T05:03:54;89834.72;;;-145.93
66604;BMP280;53460;39.612;8.822;2023-02-01T05:06:21;89834.72;;;-145.93
66604;BMP280;53460;39.612;8.822;2023-02-01T05:08:47;89834.72;;;-145.93
66604;BMP280;53460;39.612;8.822;2023-02-01T05:11:13;89834.72;;;-145.93
66604;BMP280;53460;39.612;8.822;2023-02-01T05:13:58;89834.72;;;-145.93
66604;BMP280;53460;39.612;8.822;2023-02-01T05:16:25;89834.72;;;-145.93
66604;BMP280;53460;39.612;8.822;2023-02-01T05:18:51;89834.72;;;-145.93
66604;BMP280;53460;39.612;8.822;2023-02-01T05:21:16;89834.72;;;-145.93
66604;BMP280;53460;39.612;8.822;2023-02-01T05:23:42;89834.72;;;-145.93
66604;BMP280;53460;39.612;8.822;2023-02-01T05:26:27;89834.72;;;-145.93
66604;BMP280;53460;39.612;8.822;2023-02-01T05:28:52;89834.72;;;-145.93
66604;BMP280;53460;39.612;8.822;2023-02-01T05:31:18;89834.72;;;-145.93
66604;BMP280;53460;39.612;8.822;2023-02-01T05:33:44;89834.72;;;-145.93
66604;BMP280;53460;39.612;8.822;2023-02-01T05:36:09;89834.72;;;-145.93
66604;BMP280;53460;39.612;8.822;2023-02-01T05:38:35;89834.72;;;-145.93
66604;BMP280;53460;39.612;8.822;2023-02-01T05:41:01;89834.72;;;-145.93
66604;BMP280;53460;39.612;8.822;2023-02-01T05:43:26;89834.72;;;-145.93
66604;BMP280;53460;39.612;8.822;2023-02-01T05:45:52;89834.72;;;-145.93
66604;BMP280;53460;39.612;8.822;2023-02-01T05:48:18;89834.72;;;-145.93
66604;BMP280;53460;39.612;8.822;2023-02-01T05:50:44;89834.72;;;-145.93
66604;BMP280;53460;39.612;8.822;2023-02-01T05:53:10;89834.72;;;-145.93
66604;BMP280;53460;39.612;8.822;2023-02-01T05:55:36;89834.72;;;-145.93
66604;BMP280;53460;39.612;8.822;2023-02-01T05:58:03;89834.72;;;-145.93
66604;BMP280;53460;39.612;8.822;2023-02-01T06:00:29;89834.72;;;-145.93
66604;BMP280;53460;39.612;8.822;2023-02-01T06:02:55;89834.72;;;-145.93
66604;BMP280;53460;39.612;8.822;2023-02-01T06:05:20;89834.72;;;-145.93
66604;BMP280;53460;39.612;8.822;2023-02-01T06:07:46;89834.72;;;-145.93
66604;BMP280;53460;39.612;8.822;2023-02-01T06:10:12;89834.72;;;-145.93
66604;BMP280;53460;39.612;8.822;2023-02-01T06:12:38;89834.72;;;-145.93
66604;BMP280;53460;39.612;8.822;2023-02-01T06:15:04;89834.72;;;-145.93
66604;BMP280;53460;39.612;8.822;2023-02-01T06:17:30;89834.72;;;-145.93
66604;BMP280;53460;39.612;8.822;2023-02-01T06:19:56;89834.72;;;-145.93
66604;BMP280;53460;39.612;8.822;2023-02-01T06:22:22;89834.72;;;-145.93
66604;BMP280;53460;39.612;8.822;2023-02-01T06:24:48;89834.72;;;-145.93
66604;BMP280;53460;39.612;8.822;2023-02-01T06:27:14;89834.72;;;-145.93
66604;BMP280;53460;39.612;8.822;2023-02-01T06:29:40;89834.72;;;-145.93
66604;BMP280;53460;39.612;8.822;2023-02-01T06:32:06;89834.72;;;-145.93
66604;BMP280;53460;39.612;8.822;2023-02-01T06:34:32;89834.72;;;-145.93
66604;BMP280;53460;39.612;8.822;2023-02-01T06:36:57;89834.72;;;-145.93
66604;BMP280;53460;39.612;8.822;2023-02-01T06:39:23;89834.72;;;-145.93
66604;BMP280;53460;39.612;8.822;2023-02-01T06:41:49;89834.72;;;-145.93
66604;BMP280;53460;39.612;8.822;2023-02-01T06:44:16;89834.72;;;-145.93
66604;BMP280;53460;39.612;8.822;2023-02-01T06:46:42;89834.72;;;-145.93
66604;BMP280;53460;39.612;8.822;2023-02-01T06:49:08;89834.72;;;-145.93
66604;BMP280;53460;39.612;8.822;2023-02-01T06:51:34;89834.72;;;-145.93
66604;BMP280;53460;39.612;8.822;2023-02-01T06:54:00;89834.72;;;-145.93
66604;BMP280;53460;39.612;8.822;2023-02-01T06:56:26;89834.72;;;-145.93
66604;BMP280;53460;39.612;8.822;2023-02-01T06:58:53;89834.72;;;-145.93
66604;BMP280;53460;39.612;8.822;2023-02-01T07:01:19;89834.72;;;-145.93
66604;BMP280;53460;39.612;8.822;2023-02-01T07:03:49;89834.72;;;-145.93
66604;BMP280;53460;39.612;8.822;2023-02-01T07:06:16;89834.72;;;-145.93
66604;BMP280;53460;39.612;8.822;2023-02-01T07:08:42;89834.72;;;-145.93
66604;BMP280;53460;39.612;8.822;2023-02-01T07:11:11;89834.72;;;-145.93
66604;BMP280;53460;39.612;8.822;2023-02-01T07:13:37;89834.72;;;-145.93
66604;BMP280;53460;39.612;8.822;2023-02-01T07:16:05;89834.72;;;-145.93
66604;BMP280;53460;39.612;8.822;2023-02-01T07:18:31;89834.72;;;-145.93
66604;BMP280;53460;39.612;8.822;2023-02-01T07:20:57;89834.72;;;-145.93
66604;BMP280;53460;39.612;8.822;2023-02-01T07:23:23;89834.72;;;-145.93
66604;BMP280;53460;39.612;8.822;2023-02-01T07:25:53;89834.72;;;-145.93
66604;BMP280;53460;39.612;8.822;2023-02-01T07:28:19;89834.72;;;-145.93
66604;BMP280;53460;39.612;8.822;2023-02-01T07:30:45;89834.72;;;-145.93
66604;BMP280;53460;39.612;8.822;2023-02-01T07:33:24;89834.72;;;-145.93
66604;BMP280;53460;39.612;8.822;2023-02-01T07:35:51;89834.72;;;-145.93
66604;BMP280;53460;39.612;8.822;2023-02-01T07:38:17;89834.72;;;-145.93
66604;BMP280;53460;39.612;8.822;2023-02-01T07:40:43;89834.72;;;-145.93
66604;BMP280;53460;39.612;8.822;2023-02-01T07:43:09;89834.72;;;-145.93
66604;BMP280;53460;39.612;8.822;2023-02-01T07:45:36;89834.72;;;-145.93
66604;BMP280;53460;39.612;8.822;2023-02-01T07:48:02;89834.72;;;-145.93
66604;BMP280;53460;39.612;8.822;2023-02-01T07:50:29;89834.72;;;-145.93
66604;BMP280;53460;39.612;8.822;2023-02-01T07:52:55;89834.72;;;-145.93
66604;BMP280;53460;39.612;8.822;2023-02-01T07:55:21;89834.72;;;-145.93
66604;BMP280;53460;39.612;8.822;2023-02-01T07:57:47;89834.72;;;-145.93
66604;BMP280;53460;39.612;8.822;2023-02-01T08:00:13;89834.72;;;-145.93
66604;BMP280;53460;39.612;8.822;2023-02-01T08:02:58;89834.72;;;-145.93
66604;BMP280;53460;39.612;8.822;2023-02-01T08:05:24;89834.72;;;-145.93
66604;BMP280;53460;39.612;8.822;2023-02-01T08:07:50;89834.72;;;-145.93
66604;BMP280;53460;39.612;8.822;2023-02-01T08:10:16;89834.72;;;-145.93
66604;BMP280;53460;39.612;8.822;2023-02-01T08:12:42;89834.72;;;-145.93
66604;BMP280;53460;39.612;8.822;2023-02-01T08:15:09;89834.72;;;-145.93
66604;BMP280;53460;39.612;8.822;2023-02-01T08:17:34;89834.72;;;-145.93
66604;BMP280;53460;39.612;8.822;2023-02-01T08:20:00;89834.72;;;-145.93
66604;BMP280;53460;39.612;8.822;2023-02-01T08:22:25;89834.72;;;-145.93
66604;BMP280;53460;39.612;8.822;2023-02-01T08:24:51;89834.72;;;-145.93
66604;BMP280;53460;39.612;8.822;2023-02-01T08:27:23;89834.72;;;-145.93
66604;BMP280;53460;39.612;8.822;2023-02-01T08:29:49;89834.72;;;-145.93
66604;BMP280;53460;39.612;8.822;2023-02-01T08:32:15;89834.72;;;-145.93
66604;BMP280;53460;39.612;8.822;2023-02-01T08:34:40;89834.72;;;-145.93
66604;BMP280;53460;39.612;8.822;2023-02-01T08:37:06;89834.72;;;-145.93
66604;BMP280;53460;39.612;8.822;2023-02-01T08:39:32;89834.72;;;-145.93
66604;BMP280;53460;39.612;8.822;2023-02-01T08:41:58;89834.72;;;-145.93
66604;BMP280;53460;39.612;8.822;2023-02-01T08:44:42;89834.72;;;-145.93
66604;BMP280;53460;39.612;8.822;2023-02-01T08:47:07;89834.72;;;-145.93
66604;BMP280;53460;39.612;8.822;2023-02-01T08:49:33;89834.72;;;-145.93
66604;BMP280;53460;39.612;8.822;2023-02-01T08:51:59;89834.72;;;-145.93
66604;BMP280;53460;39.612;8.822;2023-02-01T08:54:24;89834.72;;;-145.93
66604;BMP280;53460;39.612;8.822;2023-02-01T08:56:50;89834.72;;;-145.93
66604;BMP280;53460;39.612;8.822;2023-02-01T08:59:15;89834.72;;;-145.93
66604;BMP280;53460;39.612;8.822;2023-02-01T09:01:41;89834.72;;;-145.93
66604;BMP280;53460;39.612;8.822;2023-02-01T09:04:07;89834.72;;;-145.93
66604;BMP280;53460;39.612;8.822;2023-02-01T09:06:32;89834.72;;;-145.93
66604;BMP280;53460;39.612;8.822;2023-02-01T09:08:59;89834.72;;;-145.93
66604;BMP280;53460;39.612;8.822;2023-02-01T09:11:25;89834.72;;;-145.93
66604;BMP280;53460;39.612;8.822;2023-02-01T09:13:52;89834.72;;;-145.93
66604;BMP280;53460;39.612;8.822;2023-02-01T09:16:17;89834.72;;;-145.93
66604;BMP280;53460;39.612;8.822;2023-02-01T09:18:43;89834.72;;;-145.93
66604;BMP280;53460;39.612;8.822;2023-02-01T09:21:09;89834.72;;;-145.93
66604;BMP280;53460;39.612;8.822;2023-02-01T09:23:35;89834.72;;;-145.93
66604;BMP280;53460;39.612;8.822;2023-02-01T09:26:01;89834.72;;;-145.93
66604;BMP280;53460;39.612;8.822;2023-02-01T09:28:27;89834.72;;;-145.93
66604;BMP280;53460;39.612;8.822;2023-02-01T09:31:00;89834.72;;;-145.93
66604;BMP280;53460;39.612;8.822;2023-02-01T09:33:27;89834.72;;;-145.93
66604;BMP280;53460;39.612;8.822;2023-02-01T09:36:02;89834.72;;;-145.93
66604;BMP280;53460;39.612;8.822;2023-02-01T09:38:28;89834.72;;;-145.93
66604;BMP280;53460;39.612;8.822;2023-02-01T09:40:55;89834.72;;;-145.93
66604;BMP280;53460;39.612;8.822;2023-02-01T09:46:02;89834.72;;;-145.93
66604;BMP280;53460;39.612;8.822;2023-02-01T09:48:35;89834.72;;;-145.93
66604;BMP280;53460;39.612;8.822;2023-02-01T09:51:05;89834.72;;;-145.93
66604;BMP280;53460;39.612;8.822;2023-02-01T09:53:35;89834.72;;;-145.93
66604;BMP280;53460;39.612;8.822;2023-02-01T09:56:17;89834.72;;;-145.93
66604;BMP280;53460;39.612;8.822;2023-02-01T09:58:58;89834.72;;;-145.93
66604;BMP280;53460;39.612;8.822;2023-02-01T10:01:26;89834.72;;;-145.93
66604;BMP280;53460;39.612;8.822;2023-02-01T10:04:07;89834.72;;;-145.93
66604;BMP280;53460;39.612;8.822;2023-02-01T10:31:43;101093.47;;;22.49
66604;BMP280;53460;39.612;8.822;2023-02-01T10:34:22;101091.38;;;22.47
66604;BMP280;53460;39.612;8.822;2023-02-01T10:39:25;101076.53;;;22.17
66604;BMP280;53460;39.612;8.822;2023-02-01T10:41:50;101070.38;;;22.14
66604;BMP280;53460;39.612;8.822;2023-02-01T10:44:23;101073.75;;;22.50
66604;BMP280;53460;39.612;8.822;2023-02-01T10:46:50;101042.31;;;20.78
66604;BMP280;53460;39.612;8.822;2023-02-01T10:49:24;101027.56;;;19.81
66604;BMP280;53460;39.612;8.822;2023-02-01T10:54:53;101034.50;;;20.92
66604;BMP280;53460;39.612;8.822;2023-02-01T10:57:22;101026.81;;;20.82
66604;BMP280;53460;39.612;8.822;2023-02-01T10:59:50;101024.53;;;20.45
66604;BMP280;53460;39.612;8.822;2023-02-01T11:02:32;101004.03;;;20.12
66604;BMP280;53460;39.612;8.822;2023-02-01T11:05:10;100998.09;;;20.17
66604;BMP280;53460;39.612;8.822;2023-02-01T11:07:39;100990.31;;;20.06
66604;BMP280;53460;39.612;8.822;2023-02-01T11:10:41;100987.03;;;19.38
66604;BMP280;53460;39.612;8.822;2023-02-01T11:13:17;100974.53;;;19.26
66604;BMP280;53460;39.612;8.822;2023-02-01T11:15:55;100970.28;;;19.43
66604;BMP280;53460;39.612;8.822;2023-02-01T11:18:27;100954.16;;;19.02
66604;BMP280;53460;39.612;8.822;2023-02-01T11:20:53;100949.22;;;18.13
66604;BMP280;53460;39.612;8.822;2023-02-01T11:23:25;100942.63;;;18.58
66604;BMP280;53460;39.612;8.822;2023-02-01T11:25:57;100929.94;;;17.83
66604;BMP280;53460;39.612;8.822;2023-02-01T11:28:29;100929.31;;;17.84
66604;BMP280;53460;39.612;8.822;2023-02-01T11:30:59;100922.88;;;17.36
66604;BMP280;53460;39.612;8.822;2023-02-01T11:33:29;100921.63;;;17.57
66604;BMP280;53460;39.612;8.822;2023-02-01T11:36:00;100901.75;;;16.95
66604;BMP280;53460;39.612;8.822;2023-02-01T11:38:30;100922.47;;;18.82
66604;BMP280;53460;39.612;8.822;2023-02-01T11:41:12;100940.00;;;19.73
66604;BMP280;53460;39.612;8.822;2023-02-01T11:46:32;100936.72;;;19.29
66604;BMP280;53460;39.612;8.822;2023-02-01T11:49:20;100929.28;;;19.29
66604;BMP280;53460;39.612;8.822;2023-02-01T12:08:32;100925.38;;;19.34
66604;BMP280;53460;39.612;8.822;2023-02-01T12:14:21;100917.56;;;18.15
66604;BMP280;53460;39.612;8.822;2023-02-01T12:20:26;100902.16;;;18.18
66604;BMP280;53460;39.612;8.822;2023-02-01T12:25:33;100867.50;;;16.64
66604;BMP280;53460;39.612;8.822;2023-02-01T12:28:28;100858.41;;;16.73
66604;BMP280;53460;39.612;8.822;2023-02-01T12:33:50;100846.25;;;16.72
66604;BMP280;53460;39.612;8.822;2023-02-01T12:44:32;100839.03;;;16.77
66604;BMP280;53460;39.612;8.822;2023-02-01T12:47:26;100838.81;;;16.89
66604;BMP280;53460;39.612;8.822;2023-02-01T12:52:47;100830.03;;;15.88
66604;BMP280;53460;39.612;8.822;2023-02-01T12:55:42;100819.28;;;16.37
66604;BMP280;53460;39.612;8.822;2023-02-01T13:01:06;100837.00;;;17.68
66604;BMP280;53460;39.612;8.822;2023-02-01T13:03:44;100837.41;;;18.00
66604;BMP280;53460;39.612;8.822;2023-02-01T13:08:54;100828.63;;;16.69
66604;BMP280;53460;39.612;8.822;2023-02-01T13:11:29;100828.31;;;16.79
66604;BMP280;53460;39.612;8.822;2023-02-01T13:16:49;100813.81;;;16.86
66604;BMP280;53460;39.612;8.822;2023-02-01T13:19:55;100806.81;;;17.16
66604;BMP280;53460;39.612;8.822;2023-02-01T13:22:30;100795.75;;;16.22
66604;BMP280;53460;39.612;8.822;2023-02-01T13:25:17;100785.69;;;16.56
66604;BMP280;53460;39.612;8.822;2023-02-01T13:27:45;100776.06;;;16.17
66604;BMP280;53460;39.612;8.822;2023-02-01T13:30:22;100779.63;;;16.55
66604;BMP280;53460;39.612;8.822;2023-02-01T13:41:24;100716.19;;;15.52
66604;BMP280;53460;39.612;8.822;2023-02-01T13:43:58;100702.13;;;15.06
66604;BMP280;53460;39.612;8.822;2023-02-01T13:46:24;100695.91;;;15.64
66604;BMP280;53460;39.612;8.822;2023-02-01T13:48:56;100685.94;;;15.20
66604;BMP280;53460;39.612;8.822;2023-02-01T13:51:44;100685.03;;;14.99
66604;BMP280;53460;39.612;8.822;2023-02-01T13:54:43;100666.50;;;14.90
66604;BMP280;53460;39.612;8.822;2023-02-01T13:57:38;100669.13;;;15.19
66604;BMP280;53460;39.612;8.822;2023-02-01T14:00:27;100664.59;;;15.08
66604;BMP280;53460;39.612;8.822;2023-02-01T14:08:13;100645.03;;;14.31
66604;BMP280;53460;39.612;8.822;2023-02-01T14:10:49;100638.75;;;14.56
66604;BMP280;53460;39.612;8.822;2023-02-01T14:13:27;100648.59;;;14.35
66604;BMP280;53460;39.612;8.822;2023-02-01T14:16:16;100643.03;;;14.61
66604;BMP280;53460;39.612;8.822;2023-02-01T14:21:54;100643.94;;;14.97
66604;BMP280;53460;39.612;8.822;2023-02-01T14:24:16;100639.91;;;14.96
66604;BMP280;53460;39.612;8.822;2023-02-01T14:26:56;100643.34;;;14.82
66604;BMP280;53460;39.612;8.822;2023-02-01T14:29:35;100643.88;;;15.10
66604;BMP280;53460;39.612;8.822;2023-02-01T14:34:48;100680.28;;;15.94
66604;BMP280;53460;39.612;8.822;2023-02-01T14:44:42;100644.91;;;15.35
66604;BMP280;53460;39.612;8.822;2023-02-01T14:47:27;100652.19;;;15.32
66604;BMP280;53460;39.612;8.822;2023-02-01T14:52:33;100659.28;;;15.91
66604;BMP280;53460;39.612;8.822;2023-02-01T14:55:03;100660.22;;;15.48
66604;BMP280;53460;39.612;8.822;2023-02-01T14:57:33;100643.53;;;15.34
66604;BMP280;53460;39.612;8.822;2023-02-01T15:00:14;100622.88;;;14.75
66604;BMP280;53460;39.612;8.822;2023-02-01T15:02:42;100612.44;;;14.23
66604;BMP280;53460;39.612;8.822;2023-02-01T15:07:51;100594.84;;;13.90
66604;BMP280;53460;39.612;8.822;2023-02-01T15:10:19;100591.25;;;13.99
66604;BMP280;53460;39.612;8.822;2023-02-01T15:12:46;100605.19;;;13.68
66604;BMP280;53460;39.612;8.822;2023-02-01T15:15:18;100614.72;;;13.85
66604;BMP280;53460;39.612;8.822;2023-02-01T15:17:55;100609.44;;;13.87
66604;BMP280;53460;39.612;8.822;2023-02-01T15:20:27;100615.50;;;13.88
66604;BMP280;53460;39.612;8.822;2023-02-01T15:25:28;100631.47;;;13.99
66604;BMP280;53460;39.612;8.822;2023-02-01T15:27:55;100625.13;;;13.38
66604;BMP280;53460;39.612;8.822;2023-02-01T15:32:48;100598.03;;;13.45
66604;BMP280;53460;39.612;8.822;2023-02-01T15:35:37;100586.13;;;13.48
66604;BMP280;53460;39.612;8.822;2023-02-01T15:43:25;100577.56;;;13.11
66604;BMP280;53460;39.612;8.822;2023-02-01T15:45:56;100571.69;;;13.01
66604;BMP280;53460;39.612;8.822;2023-02-01T15:48:24;100593.19;;;12.89
66604;BMP280;53460;39.612;8.822;2023-02-01T15:50:54;100579.03;;;13.00
66604;BMP280;53460;39.612;8.822;2023-02-01T15:53:24;100584.31;;;13.12
66604;BMP280;53460;39.612;8.822;2023-02-01T15:55:55;100581.97;;;12.93
66604;BMP280;53460;39.612;8.822;2023-02-01T15:58:23;100598.91;;;12.83
66604;BMP280;53460;39.612;8.822;2023-02-01T16:00:52;100585.22;;;12.77
66604;BMP280;53460;39.612;8.822;2023-02-01T16:03:42;100581.31;;;13.06
66604;BMP280;53460;39.612;8.822;2023-02-01T16:06:29;100583.72;;;12.74
66604;BMP280;53460;39.612;8.822;2023-02-01T16:09:02;100584.59;;;12.65
66604;BMP280;53460;39.612;8.822;2023-02-01T16:11:31;100569.66;;;12.48
66604;BMP280;53460;39.612;8.822;2023-02-01T16:13:58;100579.97;;;12.79
66604;BMP280;53460;39.612;8.822;2023-02-01T16:16:25;100580.34;;;12.74
66604;BMP280;53460;39.612;8.822;2023-02-01T16:18:51;100585.53;;;12.83
66604;BMP280;53460;39.612;8.822;2023-02-01T16:21:17;100590.34;;;12.99
66604;BMP280;53460;39.612;8.822;2023-02-01T16:23:42;100588.16;;;12.70
66604;BMP280;53460;39.612;8.822;2023-02-01T16:26:08;100580.78;;;12.56
66604;BMP280;53460;39.612;8.822;2023-02-01T16:28:33;100564.50;;;12.52
66604;BMP280;53460;39.612;8.822;2023-02-01T16:31:00;100570.03;;;12.68
66604;BMP280;53460;39.612;8.822;2023-02-01T16:33:26;100563.03;;;12.49
66604;BMP280;53460;39.612;8.822;2023-02-01T16:35:55;100554.72;;;12.57